sensor_id;sensor_type;location;lat;lon;timestamp;pressure;altitude;pressure_sealevel;temperature;humidity
76216;BME280;65010;50.190;18.930;2023-01-16T00:01:39;97420.44;;;4.46;70.39
76216;BME280;65010;50.190;18.930;2023-01-16T00:04:45;97416.53;;;4.42;68.54
76216;BME280;65010;50.190;18.930;2023-01-16T00:07:52;97413.28;;;4.40;69.02
76216;BME280;65010;50.190;18.930;2023-01-16T00:10:58;97404.66;;;4.31;69.23
76216;BME280;65010;50.190;18.930;2023-01-16T00:14:07;97416.16;;;4.20;69.48
76216;BME280;65010;50.190;18.930;2023-01-16T00:17:13;97408.13;;;4.14;69.96
76216;BME280;65010;50.190;18.930;2023-01-16T00:20:20;97409.09;;;4.04;69.57
76216;BME280;65010;50.190;18.930;2023-01-16T00:23:26;97416.41;;;4.09;69.72
76216;BME280;65010;50.190;18.930;2023-01-16T00:26:34;97409.28;;;4.11;70.19
76216;BME280;65010;50.190;18.930;2023-01-16T00:29:42;97405.53;;;4.14;70.08
76216;BME280;65010;50.190;18.930;2023-01-16T00:32:49;97405.09;;;4.18;70.08
76216;BME280;65010;50.190;18.930;2023-01-16T00:35:55;97395.13;;;4.14;68.93
76216;BME280;65010;50.190;18.930;2023-01-16T00:39:01;97390.78;;;4.14;68.61
76216;BME280;65010;50.190;18.930;2023-01-16T00:42:09;97399.19;;;4.08;69.46
76216;BME280;65010;50.190;18.930;2023-01-16T00:45:18;97403.56;;;4.07;68.58
76216;BME280;65010;50.190;18.930;2023-01-16T00:48:25;97395.91;;;3.98;68.78
76216;BME280;65010;50.190;18.930;2023-01-16T00:51:31;97397.97;;;3.86;69.17
76216;BME280;65010;50.190;18.930;2023-01-16T00:54:37;97396.59;;;3.82;69.78
76216;BME280;65010;50.190;18.930;2023-01-16T00:57:44;97403.81;;;3.88;70.79
76216;BME280;65010;50.190;18.930;2023-01-16T01:00:52;97399.09;;;3.92;69.94
76216;BME280;65010;50.190;18.930;2023-01-16T01:03:59;97400.56;;;3.86;69.18
76216;BME280;65010;50.190;18.930;2023-01-16T01:07:06;97392.69;;;3.78;69.73
76216;BME280;65010;50.190;18.930;2023-01-16T01:10:12;97394.63;;;3.76;70.26
76216;BME280;65010;50.190;18.930;2023-01-16T01:13:18;97375.91;;;3.72;70.78
76216;BME280;65010;50.190;18.930;2023-01-16T01:16:28;97381.44;;;3.77;69.78
76216;BME280;65010;50.190;18.930;2023-01-16T01:19:34;97379.03;;;3.76;69.96
76216;BME280;65010;50.190;18.930;2023-01-16T01:22:41;97381.97;;;3.81;70.53
76216;BME280;65010;50.190;18.930;2023-01-16T01:25:48;97383.16;;;3.86;70.19
76216;BME280;65010;50.190;18.930;2023-01-16T01:28:55;97389.97;;;3.87;70.36
76216;BME280;65010;50.190;18.930;2023-01-16T01:32:04;97389.97;;;3.87;69.35
76216;BME280;65010;50.190;18.930;2023-01-16T01:35:11;97385.22;;;3.83;69.01
76216;BME280;65010;50.190;18.930;2023-01-16T01:38:18;97384.56;;;3.81;69.99
76216;BME280;65010;50.190;18.930;2023-01-16T01:41:25;97380.81;;;3.83;69.16
76216;BME280;65010;50.190;18.930;2023-01-16T01:44:50;97379.69;;;3.78;69.20
76216;BME280;65010;50.190;18.930;2023-01-16T01:48:14;97383.84;;;3.70;68.28
76216;BME280;65010;50.190;18.930;2023-01-16T01:51:30;97377.03;;;3.69;69.80
76216;BME280;65010;50.190;18.930;2023-01-16T01:54:47;97380.09;;;3.65;69.41
76216;BME280;65010;50.190;18.930;2023-01-16T01:58:00;97373.72;;;3.59;69.31
76216;BME280;65010;50.190;18.930;2023-01-16T02:01:08;97356.38;;;3.60;69.25
76216;BME280;65010;50.190;18.930;2023-01-16T02:04:20;97349.06;;;3.63;69.70
76216;BME280;65010;50.190;18.930;2023-01-16T02:07:32;97342.72;;;3.58;69.02
76216;BME280;65010;50.190;18.930;2023-01-16T02:10:42;97344.00;;;3.54;68.88
76216;BME280;65010;50.190;18.930;2023-01-16T02:13:53;97347.25;;;3.56;69.67
76216;BME280;65010;50.190;18.930;2023-01-16T02:17:05;97339.28;;;3.57;69.49
76216;BME280;65010;50.190;18.930;2023-01-16T02:20:28;97342.25;;;3.62;68.97
76216;BME280;65010;50.190;18.930;2023-01-16T02:24:05;97347.94;;;3.66;68.85
76216;BME280;65010;50.190;18.930;2023-01-16T02:27:45;97350.03;;;3.62;68.75
76216;BME280;65010;50.190;18.930;2023-01-16T02:31:31;97339.84;;;3.69;68.89
76216;BME280;65010;50.190;18.930;2023-01-16T02:34:58;97333.94;;;3.59;67.70
76216;BME280;65010;50.190;18.930;2023-01-16T02:38:26;97338.47;;;3.57;68.22
76216;BME280;65010;50.190;18.930;2023-01-16T02:41:49;97341.59;;;3.60;67.80
76216;BME280;65010;50.190;18.930;2023-01-16T02:45:12;97347.06;;;3.57;66.62
76216;BME280;65010;50.190;18.930;2023-01-16T02:48:37;97341.53;;;3.52;67.45
76216;BME280;65010;50.190;18.930;2023-01-16T02:51:59;97338.75;;;3.45;67.51
76216;BME280;65010;50.190;18.930;2023-01-16T02:55:20;97324.72;;;3.38;67.94
76216;BME280;65010;50.190;18.930;2023-01-16T02:58:35;97333.84;;;3.42;67.25
76216;BME280;65010;50.190;18.930;2023-01-16T03:01:45;97331.75;;;3.46;67.00
76216;BME280;65010;50.190;18.930;2023-01-16T03:04:55;97324.59;;;3.40;66.39
76216;BME280;65010;50.190;18.930;2023-01-16T03:08:24;97328.09;;;3.30;66.65
76216;BME280;65010;50.190;18.930;2023-01-16T03:11:51;97327.69;;;3.17;66.41
76216;BME280;65010;50.190;18.930;2023-01-16T03:15:19;97321.00;;;3.15;66.51
76216;BME280;65010;50.190;18.930;2023-01-16T03:18:41;97325.97;;;3.26;66.41
76216;BME280;65010;50.190;18.930;2023-01-16T03:22:12;97323.41;;;3.34;65.97
76216;BME280;65010;50.190;18.930;2023-01-16T03:25:32;97319.69;;;3.37;66.18
76216;BME280;65010;50.190;18.930;2023-01-16T03:28:56;97315.56;;;3.26;65.83
76216;BME280;65010;50.190;18.930;2023-01-16T03:32:20;97330.22;;;3.35;66.41
76216;BME280;65010;50.190;18.930;2023-01-16T03:35:38;97318.72;;;3.38;66.16
76216;BME280;65010;50.190;18.930;2023-01-16T03:38:56;97315.06;;;3.48;66.91
76216;BME280;65010;50.190;18.930;2023-01-16T03:42:09;97307.28;;;3.57;65.31
76216;BME280;65010;50.190;18.930;2023-01-16T03:45:23;97291.56;;;3.58;65.40
76216;BME280;65010;50.190;18.930;2023-01-16T03:48:40;97291.88;;;3.63;65.58
76216;BME280;65010;50.190;18.930;2023-01-16T03:51:57;97291.09;;;3.63;64.32
76216;BME280;65010;50.190;18.930;2023-01-16T03:55:17;97292.69;;;3.56;64.31
76216;BME280;65010;50.190;18.930;2023-01-16T03:58:35;97287.75;;;3.44;64.17
76216;BME280;65010;50.190;18.930;2023-01-16T04:01:49;97284.03;;;3.47;64.98
76216;BME280;65010;50.190;18.930;2023-01-16T04:05:08;97279.84;;;3.54;65.72
76216;BME280;65010;50.190;18.930;2023-01-16T04:08:27;97274.94;;;3.51;64.44
76216;BME280;65010;50.190;18.930;2023-01-16T04:11:44;97265.41;;;3.52;64.55
76216;BME280;65010;50.190;18.930;2023-01-16T04:14:59;97261.31;;;3.49;64.39
76216;BME280;65010;50.190;18.930;2023-01-16T04:18:09;97262.63;;;3.53;64.75
76216;BME280;65010;50.190;18.930;2023-01-16T04:21:15;97247.66;;;3.47;64.36
76216;BME280;65010;50.190;18.930;2023-01-16T04:24:23;97250.25;;;3.47;64.46
76216;BME280;65010;50.190;18.930;2023-01-16T04:27:31;97244.41;;;3.45;63.57
76216;BME280;65010;50.190;18.930;2023-01-16T04:30:41;97242.97;;;3.50;64.11
76216;BME280;65010;50.190;18.930;2023-01-16T04:33:47;97235.03;;;3.52;63.80
76216;BME280;65010;50.190;18.930;2023-01-16T04:36:56;97221.56;;;3.57;63.66
76216;BME280;65010;50.190;18.930;2023-01-16T04:40:02;97212.28;;;3.46;62.92
76216;BME280;65010;50.190;18.930;2023-01-16T04:43:14;97212.06;;;3.39;63.42
76216;BME280;65010;50.190;18.930;2023-01-16T04:46:20;97217.22;;;3.31;63.16
76216;BME280;65010;50.190;18.930;2023-01-16T04:49:26;97215.13;;;3.35;63.46
76216;BME280;65010;50.190;18.930;2023-01-16T04:52:32;97202.50;;;3.40;63.56
76216;BME280;65010;50.190;18.930;2023-01-16T04:55:39;97206.41;;;3.36;63.43
76216;BME280;65010;50.190;18.930;2023-01-16T04:58:50;97205.22;;;3.30;62.64
76216;BME280;65010;50.190;18.930;2023-01-16T05:01:57;97193.38;;;3.27;63.57
76216;BME280;65010;50.190;18.930;2023-01-16T05:05:05;97203.44;;;3.30;63.36
76216;BME280;65010;50.190;18.930;2023-01-16T05:08:12;97192.72;;;3.25;63.15
76216;BME280;65010;50.190;18.930;2023-01-16T05:11:22;97183.00;;;3.27;64.10
76216;BME280;65010;50.190;18.930;2023-01-16T05:14:32;97183.94;;;3.26;63.04
76216;BME280;65010;50.190;18.930;2023-01-16T05:17:38;97195.28;;;3.17;62.98
76216;BME280;65010;50.190;18.930;2023-01-16T05:20:45;97191.69;;;3.18;63.73
76216;BME280;65010;50.190;18.930;2023-01-16T05:23:51;97197.50;;;3.12;63.26
76216;BME280;65010;50.190;18.930;2023-01-16T05:26:58;97197.78;;;3.01;63.20
76216;BME280;65010;50.190;18.930;2023-01-16T05:30:08;97193.75;;;3.06;63.92
76216;BME280;65010;50.190;18.930;2023-01-16T05:33:16;97199.13;;;3.13;63.81
76216;BME280;65010;50.190;18.930;2023-01-16T05:36:23;97197.03;;;3.17;62.86
76216;BME280;65010;50.190;18.930;2023-01-16T05:39:30;97188.97;;;3.20;63.90
76216;BME280;65010;50.190;18.930;2023-01-16T05:42:37;97185.13;;;3.32;63.39
76216;BME280;65010;50.190;18.930;2023-01-16T05:45:46;97170.28;;;3.16;62.31
76216;BME280;65010;50.190;18.930;2023-01-16T05:48:53;97176.25;;;3.08;62.46
76216;BME280;65010;50.190;18.930;2023-01-16T05:51:59;97168.41;;;3.00;62.67
76216;BME280;65010;50.190;18.930;2023-01-16T05:55:06;97162.72;;;2.97;62.38
76216;BME280;65010;50.190;18.930;2023-01-16T05:58:15;97149.69;;;2.88;62.69
76216;BME280;65010;50.190;18.930;2023-01-16T06:01:24;97157.34;;;2.90;63.09
76216;BME280;65010;50.190;18.930;2023-01-16T06:04:30;97157.34;;;2.90;62.29
76216;BME280;65010;50.190;18.930;2023-01-16T06:07:36;97156.81;;;2.86;62.95
76216;BME280;65010;50.190;18.930;2023-01-16T06:10:45;97151.47;;;2.88;62.65
76216;BME280;65010;50.190;18.930;2023-01-16T06:13:52;97141.28;;;2.95;62.65
76216;BME280;65010;50.190;18.930;2023-01-16T06:17:01;97139.81;;;2.92;62.75
76216;BME280;65010;50.190;18.930;2023-01-16T06:20:09;97144.34;;;2.90;62.75
76216;BME280;65010;50.190;18.930;2023-01-16T06:23:18;97145.78;;;2.84;62.50
76216;BME280;65010;50.190;18.930;2023-01-16T06:26:28;97137.03;;;2.85;62.60
76216;BME280;65010;50.190;18.930;2023-01-16T06:29:34;97139.47;;;2.87;62.88
76216;BME280;65010;50.190;18.930;2023-01-16T06:32:46;97135.56;;;2.83;62.86
76216;BME280;65010;50.190;18.930;2023-01-16T06:35:55;97125.25;;;2.91;63.14
76216;BME280;65010;50.190;18.930;2023-01-16T06:39:04;97119.06;;;2.92;63.05
76216;BME280;65010;50.190;18.930;2023-01-16T06:42:14;97116.47;;;2.92;62.82
76216;BME280;65010;50.190;18.930;2023-01-16T06:45:22;97118.28;;;3.00;63.25
76216;BME280;65010;50.190;18.930;2023-01-16T06:48:32;97112.47;;;3.06;63.19
76216;BME280;65010;50.190;18.930;2023-01-16T06:51:38;97110.22;;;3.11;63.20
76216;BME280;65010;50.190;18.930;2023-01-16T06:54:45;97107.31;;;3.14;63.00
76216;BME280;65010;50.190;18.930;2023-01-16T07:01:43;97095.75;;;3.00;62.59
76216;BME280;65010;50.190;18.930;2023-01-16T07:04:53;97042.84;;;2.59;62.69
76216;BME280;65010;50.190;18.930;2023-01-16T07:07:59;97111.75;;;2.87;63.18
76216;BME280;65010;50.190;18.930;2023-01-16T07:11:06;97100.72;;;2.85;63.20
76216;BME280;65010;50.190;18.930;2023-01-16T07:14:12;97099.72;;;2.86;63.54
76216;BME280;65010;50.190;18.930;2023-01-16T07:17:31;97042.16;;;2.48;63.04
76216;BME280;65010;50.190;18.930;2023-01-16T07:20:56;97093.22;;;2.82;62.86
76216;BME280;65010;50.190;18.930;2023-01-16T07:28:09;97094.03;;;2.83;62.96
76216;BME280;65010;50.190;18.930;2023-01-16T07:31:16;97044.47;;;2.52;62.56
76216;BME280;65010;50.190;18.930;2023-01-16T07:34:22;97107.38;;;2.88;63.19
76216;BME280;65010;50.190;18.930;2023-01-16T07:37:33;97105.72;;;2.87;63.27
76216;BME280;65010;50.190;18.930;2023-01-16T07:40:41;97081.56;;;2.86;63.63
76216;BME280;65010;50.190;18.930;2023-01-16T07:43:48;97045.09;;;2.88;64.10
76216;BME280;65010;50.190;18.930;2023-01-16T07:46:55;97044.19;;;3.05;64.28
76216;BME280;65010;50.190;18.930;2023-01-16T07:50:01;97066.16;;;3.36;63.73
76216;BME280;65010;50.190;18.930;2023-01-16T07:53:10;97000.72;;;3.07;63.68
76216;BME280;65010;50.190;18.930;2023-01-16T08:04:01;97050.75;;;3.83;63.21
76216;BME280;65010;50.190;18.930;2023-01-16T08:07:08;97005.94;;;3.65;63.42
76216;BME280;65010;50.190;18.930;2023-01-16T08:10:17;96978.81;;;3.59;63.05
76216;BME280;65010;50.190;18.930;2023-01-16T08:13:26;96987.91;;;3.80;62.71
76216;BME280;65010;50.190;18.930;2023-01-16T08:16:43;96996.38;;;3.98;62.90
76216;BME280;65010;50.190;18.930;2023-01-16T08:19:50;97005.97;;;3.98;61.92
76216;BME280;65010;50.190;18.930;2023-01-16T08:22:56;97035.00;;;4.26;62.45
76216;BME280;65010;50.190;18.930;2023-01-16T08:26:06;97033.66;;;4.38;62.24
76216;BME280;65010;50.190;18.930;2023-01-16T08:29:12;97038.84;;;4.46;62.35
76216;BME280;65010;50.190;18.930;2023-01-16T08:32:18;97021.41;;;4.55;62.26
76216;BME280;65010;50.190;18.930;2023-01-16T08:35:24;97022.50;;;4.69;61.85
76216;BME280;65010;50.190;18.930;2023-01-16T08:38:31;97014.66;;;4.77;61.66
76216;BME280;65010;50.190;18.930;2023-01-16T08:41:40;97010.19;;;4.86;61.39
76216;BME280;65010;50.190;18.930;2023-01-16T08:44:59;97010.19;;;4.86;60.68
76216;BME280;65010;50.190;18.930;2023-01-16T08:48:24;97007.31;;;4.81;60.78
76216;BME280;65010;50.190;18.930;2023-01-16T08:51:44;96990.22;;;4.86;61.47
76216;BME280;65010;50.190;18.930;2023-01-16T08:54:50;96995.06;;;4.89;60.68
76216;BME280;65010;50.190;18.930;2023-01-16T08:58:01;96989.69;;;4.91;61.34
76216;BME280;65010;50.190;18.930;2023-01-16T09:01:08;96984.91;;;5.03;61.54
76216;BME280;65010;50.190;18.930;2023-01-16T09:04:15;96980.13;;;5.15;61.16
76216;BME280;65010;50.190;18.930;2023-01-16T09:07:21;96978.72;;;5.27;60.78
76216;BME280;65010;50.190;18.930;2023-01-16T09:10:28;96968.97;;;5.44;61.01
76216;BME280;65010;50.190;18.930;2023-01-16T09:13:36;96967.06;;;5.61;60.30
76216;BME280;65010;50.190;18.930;2023-01-16T09:16:53;96949.19;;;5.73;59.91
76216;BME280;65010;50.190;18.930;2023-01-16T09:19:59;96949.56;;;5.84;59.80
76216;BME280;65010;50.190;18.930;2023-01-16T09:23:06;96937.91;;;5.95;58.84
76216;BME280;65010;50.190;18.930;2023-01-16T09:26:12;96941.16;;;5.97;57.32
76216;BME280;65010;50.190;18.930;2023-01-16T09:29:21;96936.00;;;6.04;58.45
76216;BME280;65010;50.190;18.930;2023-01-16T09:32:29;96916.22;;;6.09;58.80
76216;BME280;65010;50.190;18.930;2023-01-16T09:35:36;96902.63;;;6.14;58.07
76216;BME280;65010;50.190;18.930;2023-01-16T09:38:42;96902.91;;;6.19;57.76
76216;BME280;65010;50.190;18.930;2023-01-16T09:42:01;96895.34;;;6.24;58.10
76216;BME280;65010;50.190;18.930;2023-01-16T09:45:42;96880.31;;;6.26;57.92
76216;BME280;65010;50.190;18.930;2023-01-16T09:48:56;96877.22;;;6.31;57.96
76216;BME280;65010;50.190;18.930;2023-01-16T09:52:16;96862.84;;;6.27;56.67
76216;BME280;65010;50.190;18.930;2023-01-16T09:55:45;96862.22;;;6.25;56.31
76216;BME280;65010;50.190;18.930;2023-01-16T09:59:18;96849.56;;;6.22;57.21
76216;BME280;65010;50.190;18.930;2023-01-16T10:02:34;96842.59;;;6.29;57.18
76216;BME280;65010;50.190;18.930;2023-01-16T10:05:48;96838.69;;;6.33;56.49
76216;BME280;65010;50.190;18.930;2023-01-16T10:09:11;96834.91;;;6.36;57.01
76216;BME280;65010;50.190;18.930;2023-01-16T10:12:32;96823.72;;;6.42;57.11
76216;BME280;65010;50.190;18.930;2023-01-16T10:15:50;96825.22;;;6.51;57.48
76216;BME280;65010;50.190;18.930;2023-01-16T10:19:16;96817.97;;;6.68;56.81
76216;BME280;65010;50.190;18.930;2023-01-16T10:22:45;96810.44;;;6.80;56.58
76216;BME280;65010;50.190;18.930;2023-01-16T10:26:07;96798.22;;;6.87;55.94
76216;BME280;65010;50.190;18.930;2023-01-16T10:29:25;96774.50;;;6.82;54.71
76216;BME280;65010;50.190;18.930;2023-01-16T10:32:42;96777.41;;;6.94;55.10
76216;BME280;65010;50.190;18.930;2023-01-16T10:36:02;96759.22;;;7.07;55.17
76216;BME280;65010;50.190;18.930;2023-01-16T10:39:12;96762.56;;;7.29;54.76
76216;BME280;65010;50.190;18.930;2023-01-16T10:42:25;96762.84;;;7.41;54.84
76216;BME280;65010;50.190;18.930;2023-01-16T10:45:48;96741.84;;;7.62;54.83
76216;BME280;65010;50.190;18.930;2023-01-16T10:49:14;96735.47;;;7.78;53.60
76216;BME280;65010;50.190;18.930;2023-01-16T10:52:37;96732.72;;;7.93;52.36
76216;BME280;65010;50.190;18.930;2023-01-16T10:55:47;96726.44;;;7.87;51.20
76216;BME280;65010;50.190;18.930;2023-01-16T10:58:55;96723.63;;;7.89;52.89
76216;BME280;65010;50.190;18.930;2023-01-16T11:02:16;96716.94;;;7.73;51.04
76216;BME280;65010;50.190;18.930;2023-01-16T11:05:29;96704.41;;;7.55;51.85
76216;BME280;65010;50.190;18.930;2023-01-16T11:08:41;96697.50;;;7.41;52.13
76216;BME280;65010;50.190;18.930;2023-01-16T11:11:50;96683.81;;;7.32;52.45
76216;BME280;65010;50.190;18.930;2023-01-16T11:15:17;96678.13;;;7.22;52.79
76216;BME280;65010;50.190;18.930;2023-01-16T11:18:53;96670.75;;;7.39;53.12
76216;BME280;65010;50.190;18.930;2023-01-16T11:22:01;96670.47;;;7.68;52.68
76216;BME280;65010;50.190;18.930;2023-01-16T11:25:17;96659.47;;;7.93;51.81
76216;BME280;65010;50.190;18.930;2023-01-16T11:28:26;96649.25;;;8.18;52.64
76216;BME280;65010;50.190;18.930;2023-01-16T11:31:34;96636.72;;;8.94;51.61
76216;BME280;65010;50.190;18.930;2023-01-16T11:34:45;96625.72;;;9.30;49.89
76216;BME280;65010;50.190;18.930;2023-01-16T11:37:53;96630.47;;;9.53;49.17
76216;BME280;65010;50.190;18.930;2023-01-16T11:41:05;96618.84;;;9.74;48.21
76216;BME280;65010;50.190;18.930;2023-01-16T11:44:19;96615.66;;;10.36;48.11
76216;BME280;65010;50.190;18.930;2023-01-16T11:47:41;96615.09;;;11.14;44.45
76216;BME280;65010;50.190;18.930;2023-01-16T11:50:51;96606.53;;;11.67;43.89
76216;BME280;65010;50.190;18.930;2023-01-16T11:54:02;96604.19;;;12.43;42.68
76216;BME280;65010;50.190;18.930;2023-01-16T11:57:32;96589.88;;;12.86;40.22
76216;BME280;65010;50.190;18.930;2023-01-16T12:00:57;96582.06;;;13.44;38.86
76216;BME280;65010;50.190;18.930;2023-01-16T12:04:19;96573.22;;;13.79;38.78
76216;BME280;65010;50.190;18.930;2023-01-16T12:07:41;96555.94;;;13.59;37.82
76216;BME280;65010;50.190;18.930;2023-01-16T12:11:04;96558.06;;;13.17;38.44
76216;BME280;65010;50.190;18.930;2023-01-16T12:14:21;96534.56;;;12.63;38.91
76216;BME280;65010;50.190;18.930;2023-01-16T12:17:49;96532.44;;;11.94;39.77
76216;BME280;65010;50.190;18.930;2023-01-16T12:21:22;96528.16;;;11.58;41.82
76216;BME280;65010;50.190;18.930;2023-01-16T12:24:41;96517.84;;;11.26;42.30
76216;BME280;65010;50.190;18.930;2023-01-16T12:28:11;96503.16;;;10.88;43.13
76216;BME280;65010;50.190;18.930;2023-01-16T12:31:46;96495.22;;;10.58;43.14
76216;BME280;65010;50.190;18.930;2023-01-16T12:35:23;96482.91;;;10.15;43.31
76216;BME280;65010;50.190;18.930;2023-01-16T12:38:37;96489.00;;;9.90;44.95
76216;BME280;65010;50.190;18.930;2023-01-16T12:42:05;96482.13;;;9.64;45.46
76216;BME280;65010;50.190;18.930;2023-01-16T12:45:42;96485.97;;;9.29;46.30
76216;BME280;65010;50.190;18.930;2023-01-16T12:49:16;96476.06;;;9.00;47.32
76216;BME280;65010;50.190;18.930;2023-01-16T12:52:57;96475.13;;;8.87;48.28
76216;BME280;65010;50.190;18.930;2023-01-16T12:56:32;96471.16;;;8.72;48.51
76216;BME280;65010;50.190;18.930;2023-01-16T13:00:00;96469.63;;;8.51;49.10
76216;BME280;65010;50.190;18.930;2023-01-16T13:03:24;96465.06;;;8.26;49.45
76216;BME280;65010;50.190;18.930;2023-01-16T13:06:44;96467.66;;;8.26;50.80
76216;BME280;65010;50.190;18.930;2023-01-16T13:10:00;96446.72;;;8.33;50.97
76216;BME280;65010;50.190;18.930;2023-01-16T13:13:32;96456.75;;;8.49;51.03
76216;BME280;65010;50.190;18.930;2023-01-16T13:16:54;96449.28;;;8.46;50.64
76216;BME280;65010;50.190;18.930;2023-01-16T13:20:13;96436.84;;;8.41;50.91
76216;BME280;65010;50.190;18.930;2023-01-16T13:23:29;96417.50;;;8.36;49.99
76216;BME280;65010;50.190;18.930;2023-01-16T13:26:39;96412.34;;;8.22;50.78
76216;BME280;65010;50.190;18.930;2023-01-16T13:29:54;96417.13;;;8.32;50.72
76216;BME280;65010;50.190;18.930;2023-01-16T13:33:11;96421.16;;;8.35;51.21
76216;BME280;65010;50.190;18.930;2023-01-16T13:36:50;96407.47;;;8.33;50.44
76216;BME280;65010;50.190;18.930;2023-01-16T13:40:39;96392.59;;;8.20;50.57
76216;BME280;65010;50.190;18.930;2023-01-16T13:44:01;96381.75;;;8.09;50.74
76216;BME280;65010;50.190;18.930;2023-01-16T13:47:27;96373.72;;;8.04;50.96
76216;BME280;65010;50.190;18.930;2023-01-16T13:50:37;96369.72;;;7.95;51.54
76216;BME280;65010;50.190;18.930;2023-01-16T13:53:49;96369.94;;;7.87;51.49
76216;BME280;65010;50.190;18.930;2023-01-16T13:57:07;96370.16;;;7.65;51.08
76216;BME280;65010;50.190;18.930;2023-01-16T14:00:23;96356.31;;;7.65;52.09
76216;BME280;65010;50.190;18.930;2023-01-16T14:03:34;96350.69;;;7.68;52.45
76216;BME280;65010;50.190;18.930;2023-01-16T14:06:43;96347.84;;;7.76;51.67
76216;BME280;65010;50.190;18.930;2023-01-16T14:10:07;96345.25;;;7.56;51.75
76216;BME280;65010;50.190;18.930;2023-01-16T14:13:35;96338.25;;;7.30;51.81
76216;BME280;65010;50.190;18.930;2023-01-16T14:17:01;96334.03;;;7.09;52.63
76216;BME280;65010;50.190;18.930;2023-01-16T14:20:36;96336.06;;;7.14;53.45
76216;BME280;65010;50.190;18.930;2023-01-16T14:23:53;96331.81;;;7.13;53.44
76216;BME280;65010;50.190;18.930;2023-01-16T14:27:13;96321.38;;;6.99;53.20
76216;BME280;65010;50.190;18.930;2023-01-16T14:30:25;96302.88;;;6.74;53.87
76216;BME280;65010;50.190;18.930;2023-01-16T14:33:36;96314.50;;;6.58;54.50
76216;BME280;65010;50.190;18.930;2023-01-16T14:36:51;96306.44;;;6.53;54.98
76216;BME280;65010;50.190;18.930;2023-01-16T14:40:02;96307.84;;;6.49;55.37
76216;BME280;65010;50.190;18.930;2023-01-16T14:43:29;96308.06;;;6.47;55.89
76216;BME280;65010;50.190;18.930;2023-01-16T14:46:51;96299.22;;;6.55;56.07
76216;BME280;65010;50.190;18.930;2023-01-16T14:50:13;96293.63;;;6.58;55.38
76216;BME280;65010;50.190;18.930;2023-01-16T14:53:38;96285.78;;;6.52;55.74
76216;BME280;65010;50.190;18.930;2023-01-16T14:57:01;96284.78;;;6.46;55.88
76216;BME280;65010;50.190;18.930;2023-01-16T15:00:17;96277.13;;;6.38;56.16
76216;BME280;65010;50.190;18.930;2023-01-16T15:03:29;96267.50;;;6.32;56.68
76216;BME280;65010;50.190;18.930;2023-01-16T15:06:46;96259.03;;;6.29;57.12
76216;BME280;65010;50.190;18.930;2023-01-16T15:10:04;96257.00;;;6.25;57.24
76216;BME280;65010;50.190;18.930;2023-01-16T15:13:20;96244.56;;;6.20;57.53
76216;BME280;65010;50.190;18.930;2023-01-16T15:16:29;96243.53;;;6.15;57.59
76216;BME280;65010;50.190;18.930;2023-01-16T15:19:59;96231.69;;;6.12;58.04
76216;BME280;65010;50.190;18.930;2023-01-16T15:23:26;96231.28;;;6.02;58.13
76216;BME280;65010;50.190;18.930;2023-01-16T15:26:55;96227.22;;;5.93;58.56
76216;BME280;65010;50.190;18.930;2023-01-16T15:30:14;96217.63;;;6.00;58.79
76216;BME280;65010;50.190;18.930;2023-01-16T15:33:25;96208.78;;;5.87;58.70
76216;BME280;65010;50.190;18.930;2023-01-16T15:36:47;96220.00;;;5.88;58.69
76216;BME280;65010;50.190;18.930;2023-01-16T15:39:53;96214.59;;;5.89;58.95
76216;BME280;65010;50.190;18.930;2023-01-16T15:43:04;96202.31;;;5.77;59.12
76216;BME280;65010;50.190;18.930;2023-01-16T15:46:30;96195.25;;;5.57;59.07
76216;BME280;65010;50.190;18.930;2023-01-16T15:50:17;96202.03;;;5.45;59.72
76216;BME280;65010;50.190;18.930;2023-01-16T15:53:32;96176.50;;;5.34;60.13
76216;BME280;65010;50.190;18.930;2023-01-16T15:56:47;96164.31;;;5.41;60.11
76216;BME280;65010;50.190;18.930;2023-01-16T16:00:03;96179.34;;;5.39;59.96
76216;BME280;65010;50.190;18.930;2023-01-16T16:03:15;96176.13;;;5.37;59.99
76216;BME280;65010;50.190;18.930;2023-01-16T16:06:26;96167.09;;;5.33;59.99
76216;BME280;65010;50.190;18.930;2023-01-16T16:09:44;96169.66;;;5.26;60.32
76216;BME280;65010;50.190;18.930;2023-01-16T16:12:53;96168.88;;;5.25;60.50
76216;BME280;65010;50.190;18.930;2023-01-16T16:16:02;96155.00;;;5.18;60.41
76216;BME280;65010;50.190;18.930;2023-01-16T16:19:33;96147.97;;;5.12;60.54
76216;BME280;65010;50.190;18.930;2023-01-16T16:22:41;96154.91;;;4.98;61.09
76216;BME280;65010;50.190;18.930;2023-01-16T16:25:55;96129.41;;;4.80;61.42
76216;BME280;65010;50.190;18.930;2023-01-16T16:29:05;96117.44;;;4.58;62.07
76216;BME280;65010;50.190;18.930;2023-01-16T16:32:15;96143.88;;;4.61;62.70
76216;BME280;65010;50.190;18.930;2023-01-16T16:35:28;96137.63;;;4.56;62.74
76216;BME280;65010;50.190;18.930;2023-01-16T16:38:42;96134.41;;;4.54;63.10
76216;BME280;65010;50.190;18.930;2023-01-16T16:41:53;96118.00;;;4.53;63.06
76216;BME280;65010;50.190;18.930;2023-01-16T16:45:19;96124.94;;;4.46;63.26
76216;BME280;65010;50.190;18.930;2023-01-16T16:48:33;96114.19;;;4.49;63.46
76216;BME280;65010;50.190;18.930;2023-01-16T16:51:39;96113.94;;;4.44;63.49
76216;BME280;65010;50.190;18.930;2023-01-16T16:54:52;96098.38;;;4.50;63.34
76216;BME280;65010;50.190;18.930;2023-01-16T16:58:01;96080.69;;;4.39;63.58
76216;BME280;65010;50.190;18.930;2023-01-16T17:01:14;96102.22;;;4.55;63.71
76216;BME280;65010;50.190;18.930;2023-01-16T17:04:24;96092.44;;;4.57;63.46
76216;BME280;65010;50.190;18.930;2023-01-16T17:07:31;96080.41;;;4.56;63.67
76216;BME280;65010;50.190;18.930;2023-01-16T17:10:38;96067.72;;;4.46;63.78
76216;BME280;65010;50.190;18.930;2023-01-16T17:13:45;96073.97;;;4.52;64.25
76216;BME280;65010;50.190;18.930;2023-01-16T17:16:50;96067.38;;;4.49;63.78
76216;BME280;65010;50.190;18.930;2023-01-16T17:20:00;96071.47;;;4.65;64.13
76216;BME280;65010;50.190;18.930;2023-01-16T17:23:10;96063.91;;;4.77;63.37
76216;BME280;65010;50.190;18.930;2023-01-16T17:26:18;96060.91;;;4.80;63.39